createdAt,value
2018-09-11T00:01:25.920Z,95649.09
2018-09-11T00:03:53.860Z,95653.96
2018-09-11T00:06:21.828Z,95642.30
2018-09-11T00:08:50.001Z,95643.21
2018-09-11T00:11:17.936Z,95658.05
2018-09-11T00:13:45.998Z,95656.69
2018-09-11T00:16:14.023Z,95640.41
2018-09-11T00:18:47.017Z,95652.66
2018-09-11T00:21:14.917Z,95652.55
2018-09-11T00:23:42.901Z,95651.15
2018-09-11T00:26:11.011Z,95651.18
2018-09-11T00:28:38.998Z,95636.20
2018-09-11T00:31:06.973Z,95641.63
2018-09-11T00:33:36.060Z,95635.90
2018-09-11T00:36:04.021Z,95642.70
2018-09-11T00:38:31.973Z,95634.68
2018-09-11T00:40:59.962Z,95635.59
2018-09-11T00:43:28.063Z,95630.88
2018-09-11T00:45:56.020Z,95636.18
2018-09-11T00:48:24.014Z,95624.70
2018-09-11T00:50:52.103Z,95623.93
2018-09-11T00:53:19.975Z,95620.27
2018-09-11T00:55:48.361Z,95626.74
2018-09-11T00:58:16.370Z,95627.70
2018-09-11T01:00:44.338Z,95628.02
2018-09-11T01:03:12.325Z,95624.70
2018-09-11T01:05:40.873Z,95629.84
2018-09-11T01:08:08.850Z,95390.41
2018-09-11T01:10:36.758Z,95637.86
2018-09-11T01:13:04.698Z,95629.23
2018-09-11T01:15:32.604Z,95635.73
2018-09-11T01:18:00.504Z,95631.36
2018-09-11T01:20:28.497Z,95634.39
2018-09-11T01:22:56.452Z,95638.59
2018-09-11T01:25:24.409Z,95634.67
2018-09-11T01:27:52.566Z,95643.01
2018-09-11T01:30:21.896Z,95635.00
2018-09-11T01:32:50.770Z,95641.92
2018-09-11T01:35:18.820Z,95636.05
2018-09-11T01:37:47.024Z,95630.12
2018-09-11T01:40:14.941Z,95627.71
2018-09-11T01:42:42.893Z,95624.11
2018-09-11T01:45:10.802Z,95622.46
2018-09-11T01:47:38.831Z,95623.52
2018-09-11T01:50:06.952Z,95631.81
2018-09-11T01:52:34.834Z,95623.80
2018-09-11T01:55:02.838Z,95628.81
2018-09-11T01:57:30.829Z,95626.67
2018-09-11T01:59:58.797Z,95631.50
2018-09-11T02:02:26.819Z,95629.23
2018-09-11T02:04:54.936Z,95627.41
2018-09-11T02:07:22.874Z,95624.09
2018-09-11T02:09:50.866Z,95628.63
2018-09-11T02:12:18.844Z,95621.08
2018-09-11T02:14:46.955Z,95630.91
2018-09-11T02:17:15.016Z,95630.45
2018-09-11T02:19:43.276Z,95629.39
2018-09-11T02:22:11.263Z,95636.95
2018-09-11T02:24:39.298Z,95642.52
2018-09-11T02:27:07.022Z,95642.66
2018-09-11T02:29:34.993Z,95636.92
2018-09-11T02:32:02.987Z,95638.87
2018-09-11T02:34:30.958Z,95639.77
2018-09-11T02:36:58.919Z,95647.80
2018-09-11T02:39:26.885Z,95644.05
2018-09-11T02:41:54.910Z,95644.81
2018-09-11T02:44:22.839Z,95648.75
2018-09-11T02:46:50.794Z,95653.86
2018-09-11T02:49:18.777Z,95648.45
2018-09-11T02:51:46.803Z,95654.02
2018-09-11T02:54:14.666Z,95645.11
2018-09-11T02:56:42.701Z,95651.60
2018-09-11T02:59:10.616Z,95651.92
2018-09-11T03:01:38.527Z,95645.11
2018-09-11T03:04:06.411Z,95643.91
2018-09-11T03:06:34.866Z,95647.38
2018-09-11T03:09:03.483Z,95646.33
2018-09-11T03:11:31.477Z,95645.84
2018-09-11T03:13:59.386Z,95649.47
2018-09-11T03:16:28.408Z,95648.20
2018-09-11T03:18:57.323Z,95650.54
2018-09-11T03:21:25.796Z,95649.72
2018-09-11T03:23:53.691Z,95644.95
2018-09-11T03:26:21.771Z,95655.80
2018-09-11T03:28:49.812Z,95650.62
2018-09-11T03:31:17.745Z,95650.20
2018-09-11T03:33:45.760Z,95643.27
2018-09-11T03:36:13.683Z,95653.38
2018-09-11T03:38:41.658Z,95651.80
2018-09-11T03:41:09.548Z,95651.16
2018-09-11T03:43:37.475Z,95657.51
2018-09-11T03:46:05.510Z,95654.45
2018-09-11T03:48:33.511Z,95657.41
2018-09-11T03:51:01.486Z,95666.94
2018-09-11T03:53:29.427Z,95661.09
2018-09-11T03:55:57.482Z,95663.42
2018-09-11T03:58:25.462Z,95659.17
2018-09-11T04:00:53.408Z,95662.42
2018-09-11T04:03:21.335Z,95669.03
2018-09-11T04:05:49.267Z,95671.33
2018-09-11T04:08:18.122Z,95666.23
2018-09-11T04:10:45.992Z,95666.62
2018-09-11T04:13:14.038Z,95670.48
2018-09-11T04:15:41.967Z,95674.68
2018-09-11T04:18:09.843Z,95668.29
2018-09-11T04:20:37.862Z,95682.30
2018-09-11T04:23:05.941Z,95694.69
2018-09-11T04:25:33.907Z,95691.95
2018-09-11T04:28:01.806Z,95700.91
2018-09-11T04:30:29.816Z,95699.02
2018-09-11T04:32:57.733Z,95706.80
2018-09-11T04:35:25.679Z,95721.16
2018-09-11T04:37:53.533Z,95716.34
2018-09-11T04:40:21.635Z,95713.36
2018-09-11T04:42:49.606Z,95618.87
2018-09-11T04:45:17.471Z,95710.21
2018-09-11T04:47:45.477Z,95720.09
2018-09-11T04:50:13.410Z,95717.67
2018-09-11T04:52:41.330Z,95724.47
2018-09-11T04:55:09.205Z,95729.91
2018-09-11T04:57:37.226Z,95718.86
2018-09-11T05:00:05.317Z,95730.31
2018-09-11T05:02:33.267Z,95729.03
2018-09-11T05:05:01.161Z,95727.84
2018-09-11T05:07:29.225Z,95742.61
2018-09-11T05:09:57.093Z,95728.06
2018-09-11T05:12:25.126Z,95731.92
2018-09-11T05:14:52.993Z,95725.33
2018-09-11T05:17:20.891Z,95722.45
2018-09-11T05:19:48.906Z,95724.75
2018-09-11T05:22:16.907Z,95718.42
2018-09-11T05:24:45.085Z,95728.98
2018-09-11T05:27:13.210Z,95722.77
2018-09-11T05:29:41.494Z,95722.45
2018-09-11T05:32:09.803Z,95724.02
2018-09-11T05:34:38.993Z,95727.20
2018-09-11T05:37:06.974Z,95722.98
2018-09-11T05:39:35.674Z,95730.39
2018-09-11T05:42:03.775Z,95722.06
2018-09-11T05:44:32.260Z,95738.69
2018-09-11T05:47:00.397Z,95738.52
2018-09-11T05:49:28.360Z,95732.16
2018-09-11T05:51:56.497Z,95738.06
2018-09-11T05:54:24.556Z,95735.30
2018-09-11T05:56:52.494Z,95731.34
2018-09-11T05:59:20.448Z,95735.44
2018-09-11T06:01:48.714Z,95732.59
2018-09-11T06:04:16.746Z,95729.55
2018-09-11T06:06:44.696Z,95724.41
2018-09-11T06:09:13.648Z,95726.69
2018-09-11T06:11:41.813Z,95724.47
2018-09-11T06:14:10.028Z,95724.27
2018-09-11T06:16:37.943Z,95726.06
2018-09-11T06:19:06.150Z,95724.47
2018-09-11T06:21:34.236Z,95730.63
2018-09-11T06:24:03.884Z,95722.94
2018-09-11T06:26:34.173Z,95725.31
2018-09-11T06:29:02.360Z,95723.34
2018-09-11T06:31:30.584Z,95727.47
2018-09-11T06:33:58.630Z,95724.23
2018-09-11T06:36:27.243Z,95729.27
2018-09-11T06:38:55.229Z,95720.46
2018-09-11T06:41:24.270Z,95722.88
2018-09-11T06:43:53.327Z,95723.24
2018-09-11T06:46:21.353Z,95724.48
2018-09-11T06:48:49.613Z,95724.34
2018-09-11T06:51:19.503Z,95731.13
2018-09-11T06:53:47.437Z,95736.06
2018-09-11T06:56:15.532Z,95741.64
2018-09-11T06:58:43.593Z,95736.66
2018-09-11T07:01:13.686Z,95733.95
2018-09-11T07:03:41.628Z,95733.11
2018-09-11T07:06:09.683Z,95732.37
2018-09-11T07:08:37.761Z,95739.81
2018-09-11T07:11:06.100Z,95741.67
2018-09-11T07:13:34.050Z,95718.30
2018-09-11T07:16:09.274Z,95747.20
2018-09-11T07:18:37.148Z,95745.08
2018-09-11T07:21:05.102Z,95733.58
2018-09-11T07:23:40.734Z,95741.20
2018-09-11T07:26:09.288Z,95741.39
2018-09-11T07:28:38.053Z,95738.20
2018-09-11T07:31:06.408Z,95739.95
2018-09-11T07:33:41.823Z,95738.75
2018-09-11T07:36:10.808Z,95747.30
2018-09-11T07:38:38.690Z,95741.74
2018-09-11T07:41:07.354Z,95732.29
2018-09-11T07:43:42.623Z,95735.39
2018-09-11T07:46:12.566Z,95743.42
2018-09-11T07:48:42.010Z,95742.39
2018-09-11T07:51:10.108Z,95746.61
2018-09-11T07:53:38.258Z,95744.86
2018-09-11T07:56:07.137Z,95737.86
2018-09-11T07:58:35.650Z,95748.39
2018-09-11T08:01:03.907Z,95748.52
2018-09-11T08:03:32.116Z,95752.48
2018-09-11T08:06:00.163Z,95754.38
2018-09-11T08:08:32.246Z,95740.00
2018-09-11T08:11:02.401Z,95740.87
2018-09-11T08:13:30.772Z,95748.94
2018-09-11T08:15:58.828Z,95747.98
2018-09-11T08:18:26.847Z,95745.74
2018-09-11T08:20:54.879Z,95746.69
2018-09-11T08:23:23.081Z,95755.34
2018-09-11T08:25:51.032Z,95750.21
2018-09-11T08:28:19.070Z,95751.19
2018-09-11T08:30:54.159Z,95754.93
2018-09-11T08:33:22.170Z,95763.16
2018-09-11T08:35:50.228Z,95758.55
2018-09-11T08:38:19.197Z,95757.53
2018-09-11T08:40:47.296Z,95758.63
2018-09-11T08:43:16.621Z,95760.21
2018-09-11T08:45:45.263Z,95759.84
2018-09-11T08:48:13.947Z,95753.77
2018-09-11T08:50:42.071Z,95761.55
2018-09-11T08:53:12.839Z,95751.64
2018-09-11T08:55:42.120Z,95749.20
2018-09-11T08:58:10.122Z,95745.12
2018-09-11T09:00:38.159Z,95751.86
2018-09-11T09:03:06.489Z,95753.48
2018-09-11T09:05:34.491Z,95751.16
2018-09-11T09:08:02.627Z,95752.58
2018-09-11T09:10:31.823Z,95751.14
2018-09-11T09:12:59.947Z,95746.00
2018-09-11T09:15:29.147Z,95740.24
2018-09-11T09:17:57.165Z,95658.89
2018-09-11T09:20:25.998Z,95737.42
2018-09-11T09:22:54.866Z,95734.94
2018-09-11T09:25:23.704Z,95728.13
2018-09-11T09:27:51.623Z,95720.86
2018-09-11T09:30:19.535Z,95722.68
2018-09-11T09:32:47.558Z,95713.94
2018-09-11T09:35:15.576Z,95726.52
2018-09-11T09:37:43.667Z,95717.05
2018-09-11T09:40:11.747Z,95720.48
2018-09-11T09:42:39.778Z,95716.80
2018-09-11T09:45:08.830Z,95718.91
2018-09-11T09:47:37.043Z,95717.57
2018-09-11T09:50:05.319Z,95713.06
2018-09-11T09:52:33.385Z,95712.78
2018-09-11T09:55:01.421Z,95703.30
2018-09-11T09:57:29.520Z,95705.27
2018-09-11T09:59:57.496Z,95699.66
2018-09-11T10:02:25.521Z,95702.23
2018-09-11T10:05:06.389Z,95701.64
2018-09-11T10:07:34.485Z,95701.27
2018-09-11T10:10:03.613Z,95697.33
2018-09-11T10:12:31.773Z,95692.42
2018-09-11T10:14:59.874Z,95692.84
2018-09-11T10:17:29.573Z,95703.38
2018-09-11T10:19:57.526Z,95689.98
2018-09-11T10:22:25.613Z,95687.41
2018-09-11T10:24:53.698Z,95692.39
2018-09-11T10:27:22.840Z,95692.02
2018-09-11T10:29:52.030Z,95690.45
2018-09-11T10:32:20.978Z,95688.05
2018-09-11T10:34:49.072Z,95683.73
2018-09-11T10:37:30.759Z,95681.59
2018-09-11T10:39:58.737Z,95684.78
2018-09-11T10:42:26.668Z,95691.00
2018-09-11T10:44:55.456Z,95680.19
2018-09-11T10:47:23.587Z,95681.97
2018-09-11T10:49:51.588Z,95678.35
2018-09-11T10:52:19.601Z,95679.66
2018-09-11T10:54:47.760Z,95671.87
2018-09-11T10:57:15.716Z,95674.59
2018-09-11T10:59:44.416Z,95678.53
2018-09-11T11:02:12.499Z,95672.37
2018-09-11T11:04:42.433Z,95662.36
2018-09-11T11:07:10.566Z,95669.84
2018-09-11T11:09:39.383Z,95671.63
2018-09-11T11:12:07.581Z,95665.22
2018-09-11T11:14:35.640Z,95675.34
2018-09-11T11:17:04.327Z,95667.27
2018-09-11T11:22:07.703Z,95668.56
2018-09-11T11:24:35.757Z,95663.45
2018-09-11T11:27:03.888Z,95667.23
2018-09-11T11:29:38.472Z,95669.40
2018-09-11T11:32:07.903Z,95679.06
2018-09-11T11:34:35.929Z,95656.98
2018-09-11T11:37:03.967Z,95665.69
2018-09-11T11:39:31.993Z,95670.43
2018-09-11T11:42:01.199Z,95672.69
2018-09-11T11:44:29.337Z,95674.20
2018-09-11T11:46:57.401Z,95670.13
2018-09-11T11:49:25.524Z,95662.89
2018-09-11T11:51:53.593Z,95669.39
2018-09-11T11:54:22.126Z,95658.86
2018-09-11T11:56:50.004Z,95658.20
2018-09-11T11:59:17.965Z,95656.80
2018-09-11T12:01:46.166Z,95652.53
2018-09-11T12:04:14.253Z,95641.72
2018-09-11T12:06:42.243Z,95648.14
2018-09-11T12:09:11.415Z,95642.08
2018-09-11T12:11:39.624Z,95642.08
2018-09-11T12:14:07.811Z,95639.48
2018-09-11T12:16:35.847Z,95635.34
2018-09-11T12:19:04.862Z,95637.77
2018-09-11T12:21:32.804Z,95639.26
2018-09-11T12:24:00.924Z,95632.54
2018-09-11T12:26:28.837Z,95623.84
2018-09-11T12:28:56.787Z,95629.58
2018-09-11T12:31:24.810Z,95629.19
2018-09-11T12:33:52.701Z,95630.08
2018-09-11T12:36:20.637Z,95626.45
2018-09-11T12:38:48.913Z,95620.84
2018-09-11T12:41:16.958Z,95612.48
2018-09-11T12:43:47.934Z,95625.27
2018-09-11T12:46:16.392Z,95614.42
2018-09-11T12:48:44.377Z,95619.69
2018-09-11T12:51:12.375Z,95625.77
2018-09-11T12:53:40.542Z,95615.72
2018-09-11T12:56:08.713Z,95619.94
2018-09-11T12:58:36.768Z,95615.91
2018-09-11T13:01:04.930Z,95616.92
2018-09-11T13:03:32.938Z,95613.06
2018-09-11T13:06:01.308Z,95611.72
2018-09-11T13:08:29.511Z,95619.11
2018-09-11T13:10:57.593Z,95607.34
2018-09-11T13:13:26.258Z,95621.53
2018-09-11T13:15:54.261Z,95608.51
2018-09-11T13:18:22.409Z,95606.44
2018-09-11T13:20:50.327Z,95606.42
2018-09-11T13:23:18.604Z,95610.48
2018-09-11T13:25:46.664Z,95612.88
2018-09-11T13:28:15.283Z,95609.98
2018-09-11T13:30:43.301Z,95606.66
2018-09-11T13:33:11.401Z,95608.50
2018-09-11T13:35:39.298Z,95608.25
2018-09-11T13:38:07.282Z,95608.57
2018-09-11T13:40:35.322Z,95612.57
2018-09-11T13:43:03.436Z,95612.41
2018-09-11T13:45:31.422Z,95609.31
2018-09-11T13:47:59.504Z,95599.25
2018-09-11T13:50:27.487Z,95594.01
2018-09-11T13:52:58.127Z,95600.08
2018-09-11T13:55:26.143Z,95601.02
2018-09-11T13:57:54.162Z,95598.59
2018-09-11T14:00:22.253Z,95592.95
2018-09-11T14:02:50.755Z,95587.20
2018-09-11T14:05:19.457Z,95598.09
2018-09-11T14:07:47.465Z,95591.80
2018-09-11T14:10:15.542Z,95590.00
2018-09-11T14:12:43.496Z,95585.31
2018-09-11T14:15:11.462Z,95589.81
2018-09-11T14:17:41.264Z,95587.38
2018-09-11T14:20:09.244Z,95584.60
2018-09-11T14:22:37.873Z,95582.08
2018-09-11T14:25:06.126Z,95588.71
2018-09-11T14:27:34.585Z,95588.71
2018-09-11T14:30:02.778Z,95583.88
2018-09-11T14:32:30.977Z,95582.56
2018-09-11T14:34:58.949Z,95583.97
2018-09-11T14:37:26.900Z,95590.50
2018-09-11T14:39:54.937Z,95604.09
2018-09-11T14:42:22.931Z,95594.56
2018-09-11T14:44:51.336Z,95595.14
2018-09-11T14:47:19.242Z,95600.66
2018-09-11T14:49:47.470Z,95608.51
2018-09-11T14:52:15.638Z,95600.14
2018-09-11T14:54:43.835Z,95604.06
2018-09-11T14:57:11.997Z,95600.84
2018-09-11T14:59:40.920Z,95602.97
2018-09-11T15:02:08.910Z,95602.81
2018-09-11T15:04:36.882Z,95602.23
2018-09-11T15:07:05.060Z,95598.04
2018-09-11T15:09:33.059Z,95602.36
2018-09-11T15:12:02.177Z,95603.06
2018-09-11T15:14:32.983Z,95390.47
2018-09-11T15:17:00.967Z,95606.33
2018-09-11T15:19:28.920Z,95601.25
2018-09-11T15:21:57.457Z,95601.77
2018-09-11T15:24:25.566Z,95598.69
2018-09-11T15:26:54.622Z,95609.67
2018-09-11T15:29:22.638Z,95607.95
2018-09-11T15:31:50.691Z,95611.16
2018-09-11T15:34:18.827Z,95612.36
2018-09-11T15:36:46.921Z,95613.60
2018-09-11T15:39:14.972Z,95613.86
2018-09-11T15:41:43.012Z,95619.41
2018-09-11T15:44:11.012Z,95612.06
2018-09-11T15:46:38.947Z,95615.72
2018-09-11T15:49:06.927Z,95610.08
2018-09-11T15:51:34.951Z,95612.25
2018-09-11T15:54:02.963Z,95608.81
2018-09-11T15:56:31.789Z,95617.95
2018-09-11T15:58:59.789Z,95616.80
2018-09-11T16:01:27.750Z,95619.41
2018-09-11T16:03:55.711Z,95613.11
2018-09-11T16:06:23.708Z,95617.01
2018-09-11T16:08:51.603Z,95619.92
2018-09-11T16:11:19.642Z,95620.19
2018-09-11T16:13:47.630Z,95617.83
2018-09-11T16:16:15.568Z,95608.73
2018-09-11T16:18:43.743Z,95613.83
2018-09-11T16:21:11.821Z,95614.95
2018-09-11T16:23:40.074Z,95623.23
2018-09-11T16:26:08.048Z,95622.97
2018-09-11T16:28:36.078Z,95626.20
2018-09-11T16:31:04.397Z,95613.43
2018-09-11T16:33:32.368Z,95615.28
2018-09-11T16:36:00.610Z,95625.29
2018-09-11T16:38:29.582Z,95621.53
2018-09-11T16:40:57.514Z,95627.98
2018-09-11T16:43:25.539Z,95629.75
2018-09-11T16:45:53.632Z,95633.77
2018-09-11T16:48:22.375Z,95640.55
2018-09-11T16:50:50.434Z,95639.43
2018-09-11T16:53:18.417Z,95639.95
2018-09-11T16:55:46.347Z,95645.31
2018-09-11T16:58:14.414Z,95645.04
2018-09-11T17:00:42.463Z,95650.02
2018-09-11T17:03:10.471Z,95656.13
2018-09-11T17:05:38.471Z,95654.91
2018-09-11T17:08:07.198Z,95661.42
2018-09-11T17:10:35.901Z,95659.42
2018-09-11T17:13:04.202Z,95655.27
2018-09-11T17:15:32.246Z,95657.66
2018-09-11T17:18:00.182Z,95654.91
2018-09-11T17:20:28.197Z,95653.89
2018-09-11T17:22:56.166Z,95665.77
2018-09-11T17:25:24.190Z,95672.56
2018-09-11T17:27:52.248Z,95668.75
2018-09-11T17:30:20.226Z,95671.39
2018-09-11T17:32:48.211Z,95589.54
2018-09-11T17:35:16.091Z,95678.80
2018-09-11T17:37:44.046Z,95673.95
2018-09-11T17:40:12.049Z,95666.70
2018-09-11T17:42:40.146Z,95679.09
2018-09-11T17:45:08.143Z,95685.47
2018-09-11T17:47:36.166Z,95693.39
2018-09-11T17:50:04.437Z,95698.91
2018-09-11T17:52:32.535Z,95702.01
2018-09-11T17:55:00.426Z,95702.77
2018-09-11T17:57:28.376Z,95698.88
2018-09-11T17:59:56.347Z,95704.89
2018-09-11T18:02:24.339Z,95698.67
2018-09-11T18:04:52.267Z,95713.92
2018-09-11T18:07:20.223Z,95715.40
2018-09-11T18:09:49.183Z,95713.41
2018-09-11T18:12:17.166Z,95720.81
2018-09-11T18:14:45.553Z,95723.94
2018-09-11T18:17:13.581Z,95722.42
2018-09-11T18:19:41.732Z,95720.55
2018-09-11T18:22:09.744Z,95727.19
2018-09-11T18:24:37.843Z,95718.17
2018-09-11T18:27:07.512Z,95725.74
2018-09-11T18:29:35.530Z,95726.98
2018-09-11T18:32:03.588Z,95728.36
2018-09-11T18:34:31.598Z,95728.62
2018-09-11T18:36:59.528Z,95733.86
2018-09-11T18:39:28.073Z,95728.08
2018-09-11T18:41:56.030Z,95739.72
2018-09-11T18:44:23.963Z,95735.98
2018-09-11T18:46:51.912Z,95737.36
2018-09-11T18:49:19.877Z,95737.84
2018-09-11T18:51:47.902Z,95742.83
2018-09-11T18:54:15.878Z,95746.08
2018-09-11T18:56:43.906Z,95746.80
2018-09-11T18:59:11.856Z,95741.79
2018-09-11T19:01:39.785Z,95740.77
2018-09-11T19:04:07.673Z,95742.74
2018-09-11T19:06:35.667Z,95735.75
2018-09-11T19:09:04.846Z,95737.00
2018-09-11T19:11:32.834Z,95734.38
2018-09-11T19:14:01.068Z,95740.75
2018-09-11T19:16:29.112Z,95739.38
2018-09-11T19:18:56.994Z,95741.52
2018-09-11T19:21:24.922Z,95741.11
2018-09-11T19:23:52.799Z,95745.14
2018-09-11T19:26:20.797Z,95738.88
2018-09-11T19:28:49.133Z,95740.77
2018-09-11T19:31:17.036Z,95738.02
2018-09-11T19:33:47.898Z,95738.77
2018-09-11T19:36:15.798Z,95738.62
2018-09-11T19:38:43.723Z,95739.48
2018-09-11T19:41:11.718Z,95745.96
2018-09-11T19:43:39.603Z,95741.20
2018-09-11T19:46:07.523Z,95738.58
2018-09-11T19:48:35.775Z,95744.73
2018-09-11T19:51:03.759Z,95749.84
2018-09-11T19:53:31.776Z,95748.59
2018-09-11T19:55:59.944Z,95738.97
2018-09-11T19:58:27.938Z,95737.20
2018-09-11T20:00:55.864Z,95747.78
2018-09-11T20:03:23.815Z,95751.41
2018-09-11T20:05:51.790Z,95749.65
2018-09-11T20:08:20.005Z,95751.16
2018-09-11T20:10:48.072Z,95749.42
2018-09-11T20:13:16.112Z,95751.44
2018-09-11T20:15:44.054Z,95758.06
2018-09-11T20:18:12.102Z,95754.17
2018-09-11T20:20:40.009Z,95761.60
2018-09-11T20:23:08.004Z,95765.41
2018-09-11T20:25:36.099Z,95763.20
2018-09-11T20:28:04.103Z,95756.67
2018-09-11T20:30:32.014Z,95761.64
2018-09-11T20:32:59.925Z,95762.68
2018-09-11T20:35:28.046Z,95763.99
2018-09-11T20:37:55.982Z,95759.23
2018-09-11T20:40:24.125Z,95764.04
2018-09-11T20:42:52.056Z,95763.09
2018-09-11T20:45:20.098Z,95765.28
2018-09-11T20:47:48.062Z,95761.79
2018-09-11T20:50:16.124Z,95763.84
2018-09-11T20:52:44.156Z,95765.84
2018-09-11T20:55:12.250Z,95768.58
2018-09-11T20:57:40.206Z,95769.53
2018-09-11T21:00:08.129Z,95777.47
2018-09-11T21:02:36.126Z,95766.03
2018-09-11T21:05:04.303Z,95766.80
2018-09-11T21:07:34.380Z,95774.19
2018-09-11T21:10:02.340Z,95763.23
2018-09-11T21:12:30.908Z,95769.40
2018-09-11T21:14:58.770Z,95768.29
2018-09-11T21:17:26.742Z,95775.48
2018-09-11T21:19:54.693Z,95776.63
2018-09-11T21:22:22.573Z,95772.54
2018-09-11T21:24:50.571Z,95773.09
2018-09-11T21:27:18.511Z,95783.34
2018-09-11T21:29:46.745Z,95779.57
2018-09-11T21:32:14.661Z,95782.91
2018-09-11T21:34:42.848Z,95779.52
2018-09-11T21:37:10.771Z,95777.18
2018-09-11T21:39:39.494Z,95784.44
2018-09-11T21:42:07.541Z,95792.52
2018-09-11T21:44:35.433Z,95788.39
2018-09-11T21:47:03.426Z,95788.08
2018-09-11T21:49:31.460Z,95785.50
2018-09-11T21:51:59.600Z,95790.00
2018-09-11T21:54:27.501Z,95798.47
2018-09-11T21:56:55.473Z,95785.77
2018-09-11T21:59:23.482Z,95786.19
2018-09-11T22:01:52.000Z,95789.62
2018-09-11T22:04:20.883Z,95791.34
2018-09-11T22:06:48.854Z,95784.61
2018-09-11T22:09:16.809Z,95795.27
2018-09-11T22:11:44.743Z,95792.31
2018-09-11T22:14:12.684Z,95788.86
2018-09-11T22:16:40.551Z,95795.70
2018-09-11T22:19:08.546Z,95784.17
2018-09-11T22:21:37.206Z,95792.58
2018-09-11T22:24:05.328Z,95797.75
2018-09-11T22:26:33.613Z,95801.95
2018-09-11T22:29:01.551Z,95798.58
2018-09-11T22:31:29.734Z,95798.11
2018-09-11T22:33:57.585Z,95796.09
2018-09-11T22:36:25.770Z,95790.58
2018-09-11T22:38:53.827Z,95793.61
2018-09-11T22:41:21.780Z,95790.58
2018-09-11T22:43:50.156Z,95794.73
2018-09-11T22:46:18.284Z,95784.77
2018-09-11T22:48:46.196Z,95795.06
2018-09-11T22:51:14.118Z,95782.28
2018-09-11T22:53:42.266Z,95793.67
2018-09-11T22:56:10.196Z,95783.16
2018-09-11T22:58:38.059Z,95780.57
2018-09-11T23:01:06.051Z,95780.57
2018-09-11T23:03:34.026Z,95790.87
2018-09-11T23:06:02.098Z,95787.58
2018-09-11T23:08:30.088Z,95781.64
2018-09-11T23:10:58.026Z,95785.73
2018-09-11T23:13:25.955Z,95789.30
2018-09-11T23:15:53.846Z,95785.56
2018-09-11T23:18:21.853Z,95795.80
2018-09-11T23:20:49.846Z,95793.07
2018-09-11T23:23:17.829Z,95784.61
2018-09-11T23:25:45.955Z,95779.69
2018-09-11T23:28:13.867Z,95788.75
2018-09-11T23:30:41.863Z,95778.32
2018-09-11T23:33:09.884Z,95778.32
2018-09-11T23:35:37.898Z,95780.43
2018-09-11T23:38:05.937Z,95785.89
2018-09-11T23:40:33.968Z,95782.12
2018-09-11T23:43:01.865Z,95785.94
2018-09-11T23:45:29.846Z,95783.91
2018-09-11T23:47:57.837Z,95779.33
2018-09-11T23:50:25.757Z,95778.28
2018-09-11T23:52:53.795Z,95774.02
2018-09-11T23:55:21.843Z,95777.36
2018-09-11T23:57:49.872Z,95774.99
